»·PEaware :: N6870P KAPA-KCOS

N6870P :: KAPA-KCOS

FLIGHT INFORMATION

Flight Status: Arrived
Operator: Privately registered:
United States
More flights under this callsign
Pilot: Larry J. (31147)
Aircraft: PIPER PA-24 COMMANCHE
(PA24)
More flights by this aircraft type
Origin: KAPA Centennial
United States
Destination: KCOS City Of Colorado Springs Mun
United States
More flights between these airports :: More routes between these airports
Route: +DEN2 LUFSE V389 ADANE BRK+
File this flight plan on PilotEdge
Remarks:
Altitude:
(Current/Filed)
9,000ft
Speed:
(Current/Filed)
180kts
Departed: 01-Dec-20 09:56 AM
Arrived: 01-Dec-20 10:35 AM
Distance/Time
Traveled:
46nm/0:38
Distance/Time
To Go:
Arrived

Flight Plot

Page will automatically refresh every two minutes.

Flight plan parsing failed; only flown route is shown


Map Options




Map Legend


Flown Route
Filed Route
Departure Airport
Arrival Airport
Navaid (VOR, NDB)
Fix

Horizontal Profiles

Position Reports

Time Latitude Longitude Heading Altitude Ground
Speed
01-Dec-20 09:44 39.570927 -104.848358 179 5886ft 0kts
01-Dec-20 09:45 39.570927 -104.848358 179 5886ft 0kts
01-Dec-20 09:46 39.570927 -104.848358 179 5886ft 0kts
01-Dec-20 09:47 39.570927 -104.848358 179 5886ft 0kts
01-Dec-20 09:48 39.570870 -104.848362 187 5886ft 4kts
01-Dec-20 09:49 39.567944 -104.849292 172 5886ft 28kts
01-Dec-20 09:50 39.561732 -104.848942 151 5886ft 17kts
01-Dec-20 09:51 39.558304 -104.848885 175 5886ft 24kts
01-Dec-20 09:52 39.556927 -104.848867 230 5886ft 0kts
01-Dec-20 09:54 39.556926 -104.848867 229 5886ft 0kts
01-Dec-20 09:54 39.557362 -104.850274 355 5886ft 8kts
01-Dec-20 09:55 39.571778 -104.851020 356 6191ft 104kts
01-Dec-20 09:56 39.604234 -104.852745 357 7224ft 126kts
01-Dec-20 09:57 39.640917 -104.854607 357 8002ft 147kts
01-Dec-20 09:58 39.650519 -104.813756 153 8263ft 157kts
01-Dec-20 09:59 39.615781 -104.785809 145 8997ft 153kts
01-Dec-20 10:00 39.579089 -104.749560 139 9001ft 173kts
01-Dec-20 10:01 39.541016 -104.710301 141 9000ft 176kts
01-Dec-20 10:02 39.502177 -104.671371 141 9000ft 176kts
01-Dec-20 10:03 39.463291 -104.632804 141 8999ft 176kts
01-Dec-20 10:04 39.424628 -104.593862 141 9000ft 176kts
01-Dec-20 10:05 39.385947 -104.555121 142 8999ft 176kts
01-Dec-20 10:06 39.347041 -104.516440 141 8999ft 176kts
01-Dec-20 10:07 39.308141 -104.477736 141 8999ft 176kts
01-Dec-20 10:08 39.269278 -104.439137 142 8998ft 177kts
01-Dec-20 10:09 39.230104 -104.400134 141 8999ft 178kts
01-Dec-20 10:10 39.183941 -104.386213 181 9000ft 179kts
01-Dec-20 10:11 39.134340 -104.388144 181 8999ft 179kts
01-Dec-20 10:12 39.084702 -104.390566 181 9000ft 179kts
01-Dec-20 10:13 39.035007 -104.393020 181 9000ft 179kts
01-Dec-20 10:14 38.985154 -104.395536 181 8999ft 179kts
01-Dec-20 10:15 38.935617 -104.398254 181 9000ft 179kts
01-Dec-20 10:16 38.885786 -104.400318 181 9000ft 180kts
01-Dec-20 10:17 38.835590 -104.402791 181 9000ft 181kts
01-Dec-20 10:18 38.785305 -104.405279 181 8999ft 181kts
01-Dec-20 10:19 38.734834 -104.407774 181 8999ft 181kts
01-Dec-20 10:20 38.684598 -104.410249 181 8999ft 181kts
01-Dec-20 10:21 38.634292 -104.412704 181 8999ft 181kts
01-Dec-20 10:22 38.595159 -104.442382 246 8784ft 171kts
01-Dec-20 10:23 38.571558 -104.498095 241 8300ft 189kts
01-Dec-20 10:24 38.546765 -104.556986 241 8098ft 184kts
01-Dec-20 10:25 38.546767 -104.617967 287 8100ft 181kts
01-Dec-20 10:26 38.560507 -104.674311 287 8099ft 158kts
01-Dec-20 10:27 38.584462 -104.716293 353 8097ft 157kts
01-Dec-20 10:28 38.627960 -104.716328 0 8099ft 157kts
01-Dec-20 10:29 38.671664 -104.716051 359 8099ft 157kts
01-Dec-20 10:30 38.710620 -104.716073 359 7817ft 113kts
01-Dec-20 10:31 38.740561 -104.715986 359 7125ft 101kts
01-Dec-20 10:32 38.767963 -104.715970 359 6594ft 95kts
01-Dec-20 10:33 38.793555 -104.715994 0 6075ft 81kts
01-Dec-20 10:34 38.803641 -104.717194 271 6078ft 0kts
01-Dec-20 10:35 38.803991 -104.720146 355 6073ft 0kts

Navigation Log

Ident Type
Flight plan parsing failed, navigation log unavailable